createdAt,value
2023-04-16T00:02:01.040Z,82.45
2023-04-16T00:04:28.059Z,82.36
2023-04-16T00:06:55.452Z,82.21
2023-04-16T00:09:22.378Z,82.57
2023-04-16T00:11:49.352Z,82.70
2023-04-16T00:14:16.156Z,82.74
2023-04-16T00:16:43.140Z,82.45
2023-04-16T00:19:10.229Z,82.70
2023-04-16T00:21:37.301Z,82.69
2023-04-16T00:24:04.115Z,83.21
2023-04-16T00:26:31.510Z,82.94
2023-04-16T00:28:58.669Z,83.05
2023-04-16T00:31:29.516Z,82.89
2023-04-16T00:33:57.062Z,82.81
2023-04-16T00:36:24.761Z,83.10
2023-04-16T00:38:51.669Z,83.40
2023-04-16T00:41:19.117Z,83.39
2023-04-16T00:43:46.639Z,82.93
2023-04-16T00:46:13.832Z,83.07
2023-04-16T00:48:41.337Z,83.09
2023-04-16T00:51:09.116Z,83.35
2023-04-16T00:53:36.328Z,83.44
2023-04-16T00:56:04.764Z,83.50
2023-04-16T00:58:32.789Z,83.37
2023-04-16T01:01:00.126Z,83.27
2023-04-16T01:03:36.694Z,83.70
2023-04-16T01:06:03.824Z,83.66
2023-04-16T01:08:30.644Z,83.44
2023-04-16T01:10:57.565Z,83.28
2023-04-16T01:13:24.394Z,83.52
2023-04-16T01:15:51.957Z,83.69
2023-04-16T01:18:20.822Z,83.47
2023-04-16T01:20:48.544Z,83.73
2023-04-16T01:23:16.067Z,83.65
2023-04-16T01:25:43.648Z,83.34
2023-04-16T01:28:10.787Z,83.81
2023-04-16T01:30:37.725Z,83.85
2023-04-16T01:33:13.915Z,83.68
2023-04-16T01:35:41.617Z,83.60
2023-04-16T01:38:09.234Z,83.86
2023-04-16T01:40:37.324Z,83.60
2023-04-16T01:43:04.533Z,83.80
2023-04-16T01:45:32.064Z,83.97
2023-04-16T01:47:59.032Z,83.69
2023-04-16T01:50:26.093Z,83.80
2023-04-16T01:52:53.024Z,84.06
2023-04-16T01:55:20.576Z,83.43
2023-04-16T01:57:47.522Z,84.06
2023-04-16T02:00:15.322Z,83.67
2023-04-16T02:02:45.544Z,83.76
2023-04-16T02:05:16.887Z,83.86
2023-04-16T02:07:43.824Z,84.14
2023-04-16T02:10:10.688Z,84.23
2023-04-16T02:12:39.655Z,83.86
2023-04-16T02:15:07.228Z,84.40
2023-04-16T02:17:34.831Z,84.01
2023-04-16T02:20:10.284Z,83.83
2023-04-16T02:22:43.984Z,84.29
2023-04-16T02:25:14.482Z,84.37
2023-04-16T02:27:42.495Z,84.24
2023-04-16T02:30:29.150Z,83.99
2023-04-16T02:32:56.140Z,84.48
2023-04-16T02:35:23.199Z,84.15
2023-04-16T02:37:50.031Z,84.07
2023-04-16T02:40:17.135Z,84.37
2023-04-16T02:42:43.972Z,84.64
2023-04-16T02:45:11.774Z,84.42
2023-04-16T02:47:38.650Z,84.72
2023-04-16T02:50:06.360Z,84.67
2023-04-16T02:52:33.794Z,84.81
2023-04-16T02:55:00.932Z,84.46
2023-04-16T02:57:27.833Z,84.91
2023-04-16T02:59:54.609Z,84.78
2023-04-16T03:02:21.941Z,84.70
2023-04-16T03:04:48.894Z,84.90
2023-04-16T03:07:16.031Z,84.98
2023-04-16T03:09:42.948Z,84.81
2023-04-16T03:12:09.833Z,84.63
2023-04-16T03:14:36.630Z,84.78
2023-04-16T03:17:03.498Z,84.73
2023-04-16T03:19:30.493Z,84.80
2023-04-16T03:21:57.420Z,84.92
2023-04-16T03:24:24.382Z,84.78
2023-04-16T03:26:51.212Z,85.17
2023-04-16T03:29:21.190Z,85.18
2023-04-16T03:31:48.494Z,85.40
2023-04-16T03:34:16.025Z,85.13
2023-04-16T03:36:42.973Z,84.90
2023-04-16T03:39:10.047Z,84.78
2023-04-16T03:41:37.282Z,85.06
2023-04-16T03:44:04.109Z,84.77
2023-04-16T03:46:33.217Z,85.35
2023-04-16T03:49:00.486Z,84.98
2023-04-16T03:51:28.225Z,84.79
2023-04-16T03:53:56.292Z,84.92
2023-04-16T03:56:25.190Z,85.42
2023-04-16T03:58:53.011Z,85.26
2023-04-16T04:01:19.812Z,85.02
2023-04-16T04:03:47.285Z,85.57
2023-04-16T04:06:15.074Z,85.18
2023-04-16T04:08:42.042Z,85.57
2023-04-16T04:11:08.837Z,85.60
2023-04-16T04:13:36.506Z,85.04
2023-04-16T04:16:04.811Z,85.17
2023-04-16T04:18:32.381Z,85.18
2023-04-16T04:20:59.823Z,85.09
2023-04-16T04:23:31.067Z,85.23
2023-04-16T04:25:58.108Z,85.23
2023-04-16T04:28:25.074Z,85.63
2023-04-16T04:30:52.046Z,85.87
2023-04-16T04:33:19.183Z,85.96
2023-04-16T04:35:48.335Z,85.51
2023-04-16T04:38:19.822Z,85.44
2023-04-16T04:40:49.226Z,85.86
2023-04-16T04:43:18.329Z,85.71
2023-04-16T04:45:46.049Z,85.76
2023-04-16T04:48:13.699Z,85.81
2023-04-16T04:50:41.582Z,86.10
2023-04-16T04:53:12.160Z,85.77
2023-04-16T04:55:39.749Z,85.57
2023-04-16T04:58:07.199Z,85.58
2023-04-16T05:00:35.708Z,86.05
2023-04-16T05:03:04.245Z,85.53
2023-04-16T05:05:31.205Z,85.68
2023-04-16T05:07:58.051Z,86.23
2023-04-16T05:10:24.962Z,86.35
2023-04-16T05:12:52.136Z,85.99
2023-04-16T05:15:19.058Z,86.14
2023-04-16T05:17:46.094Z,86.38
2023-04-16T05:20:13.032Z,85.85
2023-04-16T05:22:39.922Z,86.12
2023-04-16T05:25:07.104Z,86.32
2023-04-16T05:27:33.909Z,85.84
2023-04-16T05:30:00.917Z,86.29
2023-04-16T05:32:27.989Z,86.55
2023-04-16T05:34:55.070Z,86.54
2023-04-16T05:37:21.857Z,86.20
2023-04-16T05:39:48.993Z,86.02
2023-04-16T05:42:15.829Z,86.62
2023-04-16T05:44:42.704Z,86.40
2023-04-16T05:47:09.596Z,86.10
2023-04-16T05:52:37.154Z,86.31
2023-04-16T05:55:04.370Z,86.05
2023-04-16T05:57:31.360Z,86.73
2023-04-16T05:59:58.090Z,86.45
2023-04-16T06:02:25.295Z,86.54
2023-04-16T06:04:52.182Z,86.05
2023-04-16T06:07:19.028Z,86.25
2023-04-16T06:09:45.913Z,86.86
2023-04-16T06:12:12.818Z,86.25
2023-04-16T06:14:39.692Z,86.88
2023-04-16T06:17:06.780Z,86.40
2023-04-16T06:19:33.623Z,86.65
2023-04-16T06:22:00.727Z,86.28
2023-04-16T06:24:27.552Z,86.46
2023-04-16T06:26:54.751Z,86.88
2023-04-16T06:29:25.871Z,86.36
2023-04-16T06:31:57.597Z,86.38
2023-04-16T06:34:24.571Z,86.50
2023-04-16T06:36:51.628Z,86.99
2023-04-16T06:39:18.797Z,86.96
2023-04-16T06:41:46.052Z,86.57
2023-04-16T06:44:12.922Z,87.00
2023-04-16T06:46:39.756Z,86.37
2023-04-16T06:49:07.456Z,86.47
2023-04-16T06:51:34.406Z,86.65
2023-04-16T06:54:01.422Z,86.60
2023-04-16T06:56:28.382Z,86.19
2023-04-16T06:58:57.207Z,86.26
2023-04-16T07:01:24.173Z,86.36
2023-04-16T07:03:51.404Z,86.95
2023-04-16T07:06:18.323Z,86.65
2023-04-16T07:08:45.432Z,86.46
2023-04-16T07:11:12.254Z,86.51
2023-04-16T07:13:39.192Z,86.90
2023-04-16T07:16:06.174Z,86.90
2023-04-16T07:18:33.126Z,86.37
2023-04-16T07:20:59.980Z,86.67
2023-04-16T07:23:26.799Z,86.86
2023-04-16T07:25:53.709Z,86.64
2023-04-16T07:28:20.855Z,86.79
2023-04-16T07:30:47.749Z,86.66
2023-04-16T07:33:14.535Z,86.24
2023-04-16T07:35:41.374Z,86.80
2023-04-16T07:38:08.265Z,86.18
2023-04-16T07:40:36.263Z,86.49
2023-04-16T07:43:03.326Z,86.35
2023-04-16T07:45:31.424Z,86.54
2023-04-16T07:47:58.375Z,86.13
2023-04-16T07:50:25.677Z,86.22
2023-04-16T07:52:52.573Z,86.50
2023-04-16T07:55:19.842Z,86.23
2023-04-16T07:57:46.762Z,86.43
2023-04-16T08:00:13.830Z,85.92
2023-04-16T08:02:41.552Z,86.40
2023-04-16T08:05:08.896Z,85.79
2023-04-16T08:07:35.926Z,85.88
2023-04-16T08:10:02.818Z,85.91
2023-04-16T08:12:30.004Z,85.96
2023-04-16T08:14:56.851Z,85.82
2023-04-16T08:17:23.733Z,86.05
2023-04-16T08:19:50.832Z,85.75
2023-04-16T08:22:20.970Z,85.79
2023-04-16T08:24:50.930Z,85.64
2023-04-16T08:27:20.007Z,85.54
2023-04-16T08:29:47.969Z,85.51
2023-04-16T08:32:14.970Z,85.47
2023-04-16T08:34:42.665Z,85.46
2023-04-16T08:37:10.208Z,85.13
2023-04-16T08:39:37.773Z,85.01
2023-04-16T08:42:06.220Z,85.07
2023-04-16T08:44:35.471Z,84.90
2023-04-16T08:47:03.018Z,84.84
2023-04-16T08:49:30.234Z,84.44
2023-04-16T08:51:57.207Z,84.39
2023-04-16T08:54:46.864Z,84.49
2023-04-16T08:57:24.390Z,84.03
2023-04-16T08:59:52.057Z,84.15
2023-04-16T09:02:19.345Z,83.89
2023-04-16T09:04:47.294Z,83.50
2023-04-16T09:07:15.029Z,83.39
2023-04-16T09:09:42.434Z,83.33
2023-04-16T09:12:09.723Z,82.96
2023-04-16T09:14:38.270Z,82.94
2023-04-16T09:17:06.557Z,83.11
2023-04-16T09:19:33.460Z,82.76
2023-04-16T09:22:00.490Z,82.50
2023-04-16T09:24:27.404Z,82.57
2023-04-16T09:26:55.017Z,82.25
2023-04-16T09:29:42.010Z,81.97
2023-04-16T09:32:11.104Z,81.83
2023-04-16T09:34:58.596Z,81.72
2023-04-16T09:37:27.167Z,81.40
2023-04-16T09:39:57.227Z,81.50
2023-04-16T09:42:27.184Z,81.18
2023-04-16T09:44:55.474Z,81.07
2023-04-16T09:47:25.830Z,81.10
2023-04-16T09:49:53.144Z,80.97
2023-04-16T09:52:23.545Z,80.56
2023-04-16T09:54:51.658Z,80.85
2023-04-16T09:57:21.074Z,80.48
2023-04-16T09:59:54.916Z,80.49
2023-04-16T10:02:23.367Z,80.28
2023-04-16T10:04:51.779Z,80.34
2023-04-16T10:07:19.280Z,80.19
2023-04-16T10:09:48.634Z,79.98
2023-04-16T10:12:16.224Z,79.76
2023-04-16T10:14:43.292Z,80.13
2023-04-16T10:17:10.372Z,79.47
2023-04-16T10:19:37.555Z,79.68
2023-04-16T10:22:04.935Z,79.03
2023-04-16T10:24:33.102Z,79.35
2023-04-16T10:27:00.504Z,79.34
2023-04-16T10:29:28.936Z,78.93
2023-04-16T10:31:56.873Z,78.68
2023-04-16T10:34:24.884Z,78.75
2023-04-16T10:36:53.095Z,78.25
2023-04-16T10:39:24.926Z,78.42
2023-04-16T10:41:51.845Z,78.20
2023-04-16T10:44:19.656Z,78.17
2023-04-16T10:46:50.935Z,78.21
2023-04-16T10:49:24.738Z,77.91
2023-04-16T10:51:57.738Z,77.76
2023-04-16T10:54:31.602Z,77.68
2023-04-16T10:57:02.982Z,77.58
2023-04-16T10:59:33.762Z,77.16
2023-04-16T11:02:02.650Z,77.15
2023-04-16T11:04:34.403Z,77.43
2023-04-16T11:07:06.374Z,76.93
2023-04-16T11:10:13.013Z,77.04
2023-04-16T11:12:47.449Z,76.58
2023-04-16T11:15:15.957Z,76.69
2023-04-16T11:17:51.776Z,76.54
2023-04-16T11:20:23.782Z,76.69
2023-04-16T11:22:51.200Z,76.45
2023-04-16T11:25:23.228Z,76.64
2023-04-16T11:27:50.854Z,76.55
2023-04-16T11:30:18.282Z,76.57
2023-04-16T11:32:45.820Z,76.00
2023-04-16T11:35:17.565Z,75.73
2023-04-16T11:37:45.234Z,76.01
2023-04-16T11:40:13.076Z,76.33
2023-04-16T11:42:41.146Z,75.91
2023-04-16T11:45:09.653Z,75.88
2023-04-16T11:47:47.595Z,75.70
2023-04-16T11:50:23.305Z,75.47
2023-04-16T11:52:51.828Z,75.65
2023-04-16T11:55:19.618Z,75.63
2023-04-16T11:57:46.911Z,75.04
2023-04-16T12:00:14.750Z,75.09
2023-04-16T12:02:43.964Z,75.12
2023-04-16T12:05:35.197Z,75.41
2023-04-16T12:08:03.980Z,74.99
2023-04-16T12:10:35.162Z,75.09
2023-04-16T12:13:22.079Z,75.42
2023-04-16T12:15:51.154Z,74.90
2023-04-16T12:18:20.297Z,74.73
2023-04-16T12:20:47.780Z,75.10
2023-04-16T12:23:34.516Z,74.92
2023-04-16T12:26:12.295Z,74.33
2023-04-16T12:28:40.344Z,74.03
2023-04-16T12:31:07.349Z,73.97
2023-04-16T12:33:34.315Z,74.28
2023-04-16T12:36:01.903Z,74.02
2023-04-16T12:38:29.485Z,74.00
2023-04-16T12:40:57.811Z,74.25
2023-04-16T12:43:25.267Z,73.99
2023-04-16T12:45:52.203Z,74.29
2023-04-16T12:48:19.338Z,74.36
2023-04-16T12:50:46.618Z,73.83
2023-04-16T12:53:13.549Z,74.12
2023-04-16T12:55:40.335Z,74.31
2023-04-16T12:58:07.220Z,73.65
2023-04-16T13:00:34.056Z,73.71
2023-04-16T13:03:01.031Z,73.91
2023-04-16T13:05:28.186Z,74.22
2023-04-16T13:07:55.152Z,73.77
2023-04-16T13:10:23.509Z,73.89
2023-04-16T13:12:50.427Z,73.83
2023-04-16T13:15:17.202Z,73.68
2023-04-16T13:17:44.144Z,73.70
2023-04-16T13:20:11.221Z,73.79
2023-04-16T13:22:39.393Z,73.73
2023-04-16T13:25:06.977Z,73.53
2023-04-16T13:27:33.797Z,73.94
2023-04-16T13:30:01.019Z,73.38
2023-04-16T13:32:27.972Z,73.67
2023-04-16T13:34:54.898Z,73.50
2023-04-16T13:37:21.718Z,73.49
2023-04-16T13:39:48.588Z,73.47
2023-04-16T13:42:15.492Z,73.47
2023-04-16T13:44:42.733Z,73.35
2023-04-16T13:47:09.694Z,73.39
2023-04-16T13:49:36.631Z,73.52
2023-04-16T13:52:03.780Z,73.58
2023-04-16T13:54:30.908Z,73.15
2023-04-16T13:56:57.785Z,73.46
2023-04-16T13:59:24.683Z,73.41
2023-04-16T14:01:51.747Z,72.79
2023-04-16T14:04:18.891Z,73.21
2023-04-16T14:06:46.076Z,73.21
2023-04-16T14:09:13.129Z,73.04
2023-04-16T14:11:40.229Z,72.88
2023-04-16T14:14:07.175Z,72.74
2023-04-16T14:16:35.488Z,72.94
2023-04-16T14:19:02.911Z,72.64
2023-04-16T14:24:31.979Z,72.82
2023-04-16T14:26:58.911Z,72.67
2023-04-16T14:29:26.180Z,72.49
2023-04-16T14:40:58.070Z,72.47
2023-04-16T14:43:25.012Z,72.94
2023-04-16T14:45:52.868Z,72.57
2023-04-16T14:48:20.859Z,72.50
2023-04-16T14:50:47.745Z,72.88
2023-04-16T14:53:14.648Z,72.08
2023-04-16T14:55:41.540Z,72.64
2023-04-16T14:58:08.619Z,72.63
2023-04-16T15:00:35.737Z,72.62
2023-04-16T15:03:03.872Z,73.06
2023-04-16T15:05:31.992Z,72.76
2023-04-16T15:07:59.000Z,72.72
2023-04-16T15:10:25.926Z,72.58
2023-04-16T15:12:52.772Z,72.67
2023-04-16T15:15:19.803Z,72.44
2023-04-16T15:17:46.922Z,72.83
2023-04-16T15:20:14.129Z,72.51
2023-04-16T15:22:41.101Z,72.34
2023-04-16T15:25:08.629Z,72.41
2023-04-16T15:27:36.514Z,72.60
2023-04-16T15:30:03.664Z,72.45
2023-04-16T15:32:31.249Z,72.50
2023-04-16T15:34:58.184Z,72.64
2023-04-16T15:37:25.050Z,72.58
2023-04-16T15:39:51.847Z,72.61
2023-04-16T15:42:18.702Z,72.58
2023-04-16T15:44:45.608Z,72.75
2023-04-16T15:47:12.413Z,72.76
2023-04-16T15:49:39.333Z,72.77
2023-04-16T15:52:06.324Z,72.76
2023-04-16T15:54:33.209Z,72.83
2023-04-16T15:57:00.126Z,72.83
2023-04-16T15:59:27.109Z,72.60
2023-04-16T16:01:53.985Z,73.37
2023-04-16T16:04:26.427Z,72.92
2023-04-16T16:06:54.312Z,72.98
2023-04-16T16:09:26.184Z,72.89
2023-04-16T16:11:54.384Z,72.91
2023-04-16T16:14:22.860Z,73.22
2023-04-16T16:16:50.064Z,73.11
2023-04-16T16:19:17.610Z,72.84
2023-04-16T16:21:44.467Z,73.18
2023-04-16T16:24:11.508Z,73.47
2023-04-16T16:26:38.289Z,73.39
2023-04-16T16:29:05.746Z,73.21
2023-04-16T16:31:32.709Z,73.00
2023-04-16T16:33:59.792Z,73.13
2023-04-16T16:36:27.471Z,73.17
2023-04-16T16:38:55.253Z,73.44
2023-04-16T16:41:22.615Z,73.19
2023-04-16T16:43:50.368Z,73.32
2023-04-16T16:46:17.232Z,73.45
2023-04-16T16:48:44.129Z,73.15
2023-04-16T16:51:12.578Z,73.46
2023-04-16T16:53:39.940Z,73.61
2023-04-16T16:56:06.802Z,73.35
2023-04-16T16:58:33.607Z,73.14
2023-04-16T17:01:00.633Z,73.57
2023-04-16T17:03:27.596Z,73.45
2023-04-16T17:05:56.606Z,73.65
2023-04-16T17:08:23.889Z,74.07
2023-04-16T17:10:51.456Z,73.65
2023-04-16T17:13:21.527Z,73.77
2023-04-16T17:15:48.432Z,73.97
2023-04-16T17:18:16.210Z,73.91
2023-04-16T17:20:43.077Z,73.68
2023-04-16T17:23:10.462Z,73.92
2023-04-16T17:25:37.339Z,74.24
2023-04-16T17:28:05.131Z,74.15
2023-04-16T17:30:32.375Z,74.01
2023-04-16T17:33:00.109Z,74.05
2023-04-16T17:35:27.510Z,74.44
2023-04-16T17:37:54.392Z,74.11
2023-04-16T17:40:21.255Z,74.44
2023-04-16T17:42:49.220Z,74.92
2023-04-16T17:45:16.967Z,74.56
2023-04-16T17:47:46.898Z,74.63
2023-04-16T17:50:16.810Z,75.09
2023-04-16T17:52:43.763Z,74.80
2023-04-16T17:55:11.935Z,74.89
2023-04-16T17:57:38.880Z,75.28
2023-04-16T18:00:12.724Z,74.99
2023-04-16T18:02:41.270Z,75.15
2023-04-16T18:05:08.896Z,75.03
2023-04-16T18:07:36.538Z,75.18
2023-04-16T18:10:08.633Z,75.49
2023-04-16T18:12:36.286Z,75.94
2023-04-16T18:15:03.636Z,76.14
2023-04-16T18:17:30.618Z,75.55
2023-04-16T18:19:58.265Z,76.26
2023-04-16T18:22:27.388Z,76.22
2023-04-16T18:24:54.983Z,76.67
2023-04-16T18:27:22.092Z,76.71
2023-04-16T18:29:49.485Z,76.32
2023-04-16T18:32:16.797Z,76.31
2023-04-16T18:34:44.254Z,76.68
2023-04-16T18:37:11.344Z,76.73
2023-04-16T18:39:38.230Z,76.90
2023-04-16T18:42:05.321Z,77.16
2023-04-16T18:44:32.232Z,77.43
2023-04-16T18:46:59.153Z,77.54
2023-04-16T18:49:26.201Z,77.36
2023-04-16T18:51:55.986Z,77.58
2023-04-16T18:54:23.111Z,78.10
2023-04-16T18:56:50.072Z,77.96
2023-04-16T18:59:16.891Z,78.38
2023-04-16T19:01:43.965Z,77.90
2023-04-16T19:04:10.936Z,77.87
2023-04-16T19:06:38.487Z,78.35
2023-04-16T19:09:05.832Z,78.39
2023-04-16T19:11:36.444Z,78.10
2023-04-16T19:14:06.041Z,78.70
2023-04-16T19:16:36.431Z,78.49
2023-04-16T19:19:05.548Z,78.30
2023-04-16T19:21:33.218Z,78.52
2023-04-16T19:24:02.687Z,78.83
2023-04-16T19:26:30.832Z,78.48
2023-04-16T19:29:00.367Z,78.89
2023-04-16T19:31:40.295Z,78.99
2023-04-16T19:34:10.099Z,79.26
2023-04-16T19:36:41.953Z,78.76
2023-04-16T19:39:16.958Z,78.97
2023-04-16T19:41:51.143Z,79.23
2023-04-16T19:44:24.475Z,78.98
2023-04-16T19:46:56.721Z,79.10
2023-04-16T19:49:36.107Z,78.90
2023-04-16T19:52:05.466Z,79.03
2023-04-16T19:54:36.117Z,79.00
2023-04-16T19:57:12.483Z,78.92
2023-04-16T19:59:41.647Z,79.37
2023-04-16T20:02:15.322Z,78.91
2023-04-16T20:04:56.325Z,79.61
2023-04-16T20:07:27.494Z,79.00
2023-04-16T20:10:00.654Z,78.85
2023-04-16T20:12:31.158Z,78.99
2023-04-16T20:15:01.698Z,79.10
2023-04-16T20:17:31.703Z,79.59
2023-04-16T20:20:01.095Z,79.20
2023-04-16T20:22:28.177Z,79.20
2023-04-16T20:24:55.165Z,79.25
2023-04-16T20:27:22.088Z,79.61
2023-04-16T20:29:48.926Z,79.23
2023-04-16T20:32:15.901Z,79.09
2023-04-16T20:34:42.996Z,79.74
2023-04-16T20:37:09.839Z,79.73
2023-04-16T20:39:37.005Z,79.61
2023-04-16T20:42:04.414Z,79.84
2023-04-16T20:44:40.526Z,79.73
2023-04-16T20:47:08.822Z,79.35
2023-04-16T20:49:35.820Z,79.37
2023-04-16T20:52:02.879Z,79.97
2023-04-16T20:54:30.460Z,79.46
2023-04-16T20:56:57.844Z,79.49
2023-04-16T20:59:25.405Z,79.58
2023-04-16T21:01:52.472Z,79.83
2023-04-16T21:04:19.577Z,80.00
2023-04-16T21:06:47.040Z,79.37
2023-04-16T21:09:13.828Z,79.39
2023-04-16T21:11:40.849Z,79.90
2023-04-16T21:14:07.673Z,79.73
2023-04-16T21:16:34.585Z,79.78
2023-04-16T21:19:01.520Z,79.63
2023-04-16T21:21:28.415Z,79.90
2023-04-16T21:23:55.563Z,79.97
2023-04-16T21:26:22.499Z,79.98
2023-04-16T21:28:49.365Z,80.03
2023-04-16T21:31:16.488Z,80.20
2023-04-16T21:33:43.483Z,79.96
2023-04-16T21:36:10.873Z,80.35
2023-04-16T21:38:37.878Z,79.87
2023-04-16T21:41:04.783Z,80.28
2023-04-16T21:43:32.227Z,80.00
2023-04-16T21:45:59.622Z,80.36
2023-04-16T21:48:28.451Z,80.36
2023-04-16T21:51:00.147Z,80.33
2023-04-16T21:53:28.179Z,80.38
2023-04-16T21:55:55.047Z,80.43
2023-04-16T21:58:21.864Z,80.07
2023-04-16T22:00:48.769Z,79.92
2023-04-16T22:03:17.437Z,79.98
2023-04-16T22:05:45.953Z,80.56
2023-04-16T22:08:23.892Z,79.91
2023-04-16T22:10:51.712Z,80.66
2023-04-16T22:13:18.608Z,79.93
2023-04-16T22:15:45.483Z,80.12
2023-04-16T22:18:12.458Z,80.52
2023-04-16T22:20:39.896Z,80.55
2023-04-16T22:23:07.359Z,80.41
2023-04-16T22:25:34.178Z,80.05
2023-04-16T22:28:01.684Z,80.11
2023-04-16T22:30:28.587Z,80.38
2023-04-16T22:32:55.528Z,80.27
2023-04-16T22:35:22.448Z,80.18
2023-04-16T22:37:49.310Z,80.34
2023-04-16T22:40:16.698Z,80.62
2023-04-16T22:42:43.598Z,80.11
2023-04-16T22:45:11.120Z,80.04
2023-04-16T22:47:38.034Z,80.58
2023-04-16T22:50:06.347Z,80.18
2023-04-16T22:52:33.154Z,80.56
2023-04-16T22:55:00.004Z,80.35
2023-04-16T22:57:26.817Z,80.18
2023-04-16T22:59:53.786Z,80.40
2023-04-16T23:02:21.199Z,79.99
2023-04-16T23:04:48.167Z,80.30
2023-04-16T23:07:16.309Z,80.29
2023-04-16T23:09:43.057Z,80.39
2023-04-16T23:12:09.945Z,79.98
2023-04-16T23:14:37.078Z,79.88
2023-04-16T23:17:03.948Z,79.91
2023-04-16T23:19:31.764Z,79.82
2023-04-16T23:21:58.875Z,80.08
2023-04-16T23:24:25.678Z,79.88
2023-04-16T23:26:52.809Z,80.38
2023-04-16T23:29:20.720Z,80.42
2023-04-16T23:31:47.944Z,79.97
2023-04-16T23:34:14.858Z,79.96
2023-04-16T23:36:41.810Z,80.13
2023-04-16T23:39:08.918Z,80.04
2023-04-16T23:41:35.757Z,80.55
2023-04-16T23:44:02.866Z,80.04
2023-04-16T23:46:29.775Z,79.78
2023-04-16T23:48:56.791Z,80.27
2023-04-16T23:51:23.566Z,79.79
2023-04-16T23:53:50.353Z,80.21
2023-04-16T23:56:17.390Z,79.99
2023-04-16T23:58:44.235Z,80.42
